sensor_id;sensor_type;location;lat;lon;timestamp;temperature;humidity
43949;DHT22;29429;51.074;13.764;2024-03-07T00:00:52;4.80;99.90
43949;DHT22;29429;51.074;13.764;2024-03-07T00:03:21;4.80;99.90
43949;DHT22;29429;51.074;13.764;2024-03-07T00:05:51;4.90;99.90
43949;DHT22;29429;51.074;13.764;2024-03-07T00:08:18;4.90;99.90
43949;DHT22;29429;51.074;13.764;2024-03-07T00:10:45;4.90;99.90
43949;DHT22;29429;51.074;13.764;2024-03-07T00:13:12;4.90;99.90
43949;DHT22;29429;51.074;13.764;2024-03-07T00:15:40;4.90;99.90
43949;DHT22;29429;51.074;13.764;2024-03-07T00:18:08;4.90;99.90
43949;DHT22;29429;51.074;13.764;2024-03-07T00:20:37;4.90;99.90
43949;DHT22;29429;51.074;13.764;2024-03-07T00:23:04;4.90;99.90
43949;DHT22;29429;51.074;13.764;2024-03-07T00:25:33;4.90;99.90
43949;DHT22;29429;51.074;13.764;2024-03-07T00:27:59;4.80;99.90
43949;DHT22;29429;51.074;13.764;2024-03-07T00:30:29;4.90;99.90
43949;DHT22;29429;51.074;13.764;2024-03-07T00:32:57;4.90;99.90
43949;DHT22;29429;51.074;13.764;2024-03-07T00:35:25;4.90;99.90
43949;DHT22;29429;51.074;13.764;2024-03-07T00:37:52;4.90;99.90
43949;DHT22;29429;51.074;13.764;2024-03-07T00:40:19;4.80;99.90
43949;DHT22;29429;51.074;13.764;2024-03-07T00:42:46;4.80;99.90
43949;DHT22;29429;51.074;13.764;2024-03-07T00:45:13;4.80;99.90
43949;DHT22;29429;51.074;13.764;2024-03-07T00:47:40;4.80;99.90
43949;DHT22;29429;51.074;13.764;2024-03-07T00:50:07;4.80;99.90
43949;DHT22;29429;51.074;13.764;2024-03-07T00:52:36;4.80;99.90
43949;DHT22;29429;51.074;13.764;2024-03-07T00:55:03;4.80;99.90
43949;DHT22;29429;51.074;13.764;2024-03-07T00:57:31;4.80;99.90
43949;DHT22;29429;51.074;13.764;2024-03-07T00:59:58;4.80;99.90
43949;DHT22;29429;51.074;13.764;2024-03-07T01:02:25;4.80;99.90
43949;DHT22;29429;51.074;13.764;2024-03-07T01:04:53;4.90;99.90
43949;DHT22;29429;51.074;13.764;2024-03-07T01:07:21;4.90;99.90
43949;DHT22;29429;51.074;13.764;2024-03-07T01:09:50;4.90;99.90
43949;DHT22;29429;51.074;13.764;2024-03-07T01:12:17;4.90;99.90
43949;DHT22;29429;51.074;13.764;2024-03-07T01:14:46;4.90;99.90
43949;DHT22;29429;51.074;13.764;2024-03-07T01:17:13;5.00;99.90
43949;DHT22;29429;51.074;13.764;2024-03-07T01:19:40;5.00;99.90
43949;DHT22;29429;51.074;13.764;2024-03-07T01:22:07;5.10;99.90
43949;DHT22;29429;51.074;13.764;2024-03-07T01:24:35;5.10;99.90
43949;DHT22;29429;51.074;13.764;2024-03-07T01:27:02;5.10;99.90
43949;DHT22;29429;51.074;13.764;2024-03-07T01:29:29;5.10;99.90
43949;DHT22;29429;51.074;13.764;2024-03-07T01:31:56;5.00;99.90
43949;DHT22;29429;51.074;13.764;2024-03-07T01:34:24;5.00;99.90
43949;DHT22;29429;51.074;13.764;2024-03-07T01:36:51;5.00;99.90
43949;DHT22;29429;51.074;13.764;2024-03-07T01:39:18;5.10;99.90
43949;DHT22;29429;51.074;13.764;2024-03-07T01:41:46;5.10;99.90
43949;DHT22;29429;51.074;13.764;2024-03-07T01:44:14;5.10;99.90
43949;DHT22;29429;51.074;13.764;2024-03-07T01:46:41;5.10;99.90
43949;DHT22;29429;51.074;13.764;2024-03-07T01:49:09;5.10;99.90
43949;DHT22;29429;51.074;13.764;2024-03-07T01:51:37;5.10;99.90
43949;DHT22;29429;51.074;13.764;2024-03-07T01:54:08;5.10;99.90
43949;DHT22;29429;51.074;13.764;2024-03-07T01:56:36;5.00;99.90
43949;DHT22;29429;51.074;13.764;2024-03-07T01:59:05;5.00;99.90
43949;DHT22;29429;51.074;13.764;2024-03-07T02:01:34;5.10;99.90
43949;DHT22;29429;51.074;13.764;2024-03-07T02:04:03;5.10;99.90
43949;DHT22;29429;51.074;13.764;2024-03-07T02:06:31;5.10;99.90
43949;DHT22;29429;51.074;13.764;2024-03-07T02:09:00;5.10;99.90
43949;DHT22;29429;51.074;13.764;2024-03-07T02:11:29;5.00;99.90
43949;DHT22;29429;51.074;13.764;2024-03-07T02:13:56;5.10;99.90
43949;DHT22;29429;51.074;13.764;2024-03-07T02:16:23;5.10;99.90
43949;DHT22;29429;51.074;13.764;2024-03-07T02:18:50;5.10;99.90
43949;DHT22;29429;51.074;13.764;2024-03-07T02:21:17;5.10;99.90
43949;DHT22;29429;51.074;13.764;2024-03-07T02:23:44;5.10;99.90
43949;DHT22;29429;51.074;13.764;2024-03-07T02:26:11;5.10;99.90
43949;DHT22;29429;51.074;13.764;2024-03-07T02:28:39;5.20;99.90
43949;DHT22;29429;51.074;13.764;2024-03-07T02:31:06;5.20;99.90
43949;DHT22;29429;51.074;13.764;2024-03-07T02:33:33;5.20;99.90
43949;DHT22;29429;51.074;13.764;2024-03-07T02:36:00;5.20;99.90
43949;DHT22;29429;51.074;13.764;2024-03-07T02:38:27;5.30;99.90
43949;DHT22;29429;51.074;13.764;2024-03-07T02:40:54;5.30;99.90
43949;DHT22;29429;51.074;13.764;2024-03-07T02:43:21;5.30;99.90
43949;DHT22;29429;51.074;13.764;2024-03-07T02:45:48;5.40;99.90
43949;DHT22;29429;51.074;13.764;2024-03-07T02:48:16;5.30;99.90
43949;DHT22;29429;51.074;13.764;2024-03-07T02:50:45;5.30;99.90
43949;DHT22;29429;51.074;13.764;2024-03-07T02:53:12;5.20;99.90
43949;DHT22;29429;51.074;13.764;2024-03-07T02:55:40;5.20;99.90
43949;DHT22;29429;51.074;13.764;2024-03-07T02:58:08;5.20;99.90
43949;DHT22;29429;51.074;13.764;2024-03-07T03:00:34;5.10;99.90
43949;DHT22;29429;51.074;13.764;2024-03-07T03:03:02;5.20;99.90
43949;DHT22;29429;51.074;13.764;2024-03-07T03:05:29;5.20;99.90
43949;DHT22;29429;51.074;13.764;2024-03-07T03:07:57;5.30;99.90
43949;DHT22;29429;51.074;13.764;2024-03-07T03:10:25;5.40;99.90
43949;DHT22;29429;51.074;13.764;2024-03-07T03:12:55;5.30;99.90
43949;DHT22;29429;51.074;13.764;2024-03-07T03:15:25;5.30;99.90
43949;DHT22;29429;51.074;13.764;2024-03-07T03:17:52;5.30;99.90
43949;DHT22;29429;51.074;13.764;2024-03-07T03:20:20;5.30;99.90
43949;DHT22;29429;51.074;13.764;2024-03-07T03:22:53;5.30;99.90
43949;DHT22;29429;51.074;13.764;2024-03-07T03:25:41;5.20;99.90
43949;DHT22;29429;51.074;13.764;2024-03-07T03:28:09;5.20;99.90
43949;DHT22;29429;51.074;13.764;2024-03-07T03:30:41;5.10;99.90
43949;DHT22;29429;51.074;13.764;2024-03-07T03:33:08;5.10;99.90
43949;DHT22;29429;51.074;13.764;2024-03-07T03:35:37;5.30;99.90
43949;DHT22;29429;51.074;13.764;2024-03-07T03:38:05;5.10;99.90
43949;DHT22;29429;51.074;13.764;2024-03-07T03:40:34;5.10;99.90
43949;DHT22;29429;51.074;13.764;2024-03-07T03:43:01;5.10;99.90
43949;DHT22;29429;51.074;13.764;2024-03-07T03:45:29;5.10;99.90
43949;DHT22;29429;51.074;13.764;2024-03-07T03:47:58;5.10;99.90
43949;DHT22;29429;51.074;13.764;2024-03-07T03:50:26;5.10;99.90
43949;DHT22;29429;51.074;13.764;2024-03-07T03:52:53;5.10;99.90
43949;DHT22;29429;51.074;13.764;2024-03-07T03:55:20;5.10;99.90
43949;DHT22;29429;51.074;13.764;2024-03-07T03:57:47;5.10;99.90
43949;DHT22;29429;51.074;13.764;2024-03-07T04:00:15;5.10;99.90
43949;DHT22;29429;51.074;13.764;2024-03-07T04:02:45;5.10;99.90
43949;DHT22;29429;51.074;13.764;2024-03-07T04:05:19;5.10;99.90
43949;DHT22;29429;51.074;13.764;2024-03-07T04:07:47;5.10;99.90
43949;DHT22;29429;51.074;13.764;2024-03-07T04:10:16;5.10;99.90
43949;DHT22;29429;51.074;13.764;2024-03-07T04:12:46;5.10;99.90
43949;DHT22;29429;51.074;13.764;2024-03-07T04:15:15;5.10;99.90
43949;DHT22;29429;51.074;13.764;2024-03-07T04:17:45;5.00;99.90
43949;DHT22;29429;51.074;13.764;2024-03-07T04:20:14;4.90;99.90
43949;DHT22;29429;51.074;13.764;2024-03-07T04:22:45;4.90;99.90
43949;DHT22;29429;51.074;13.764;2024-03-07T04:25:12;4.70;99.90
43949;DHT22;29429;51.074;13.764;2024-03-07T04:27:39;4.80;99.90
43949;DHT22;29429;51.074;13.764;2024-03-07T04:30:07;4.60;99.90
43949;DHT22;29429;51.074;13.764;2024-03-07T04:32:37;4.60;99.90
43949;DHT22;29429;51.074;13.764;2024-03-07T04:35:05;4.50;99.90
43949;DHT22;29429;51.074;13.764;2024-03-07T04:37:35;4.50;99.90
43949;DHT22;29429;51.074;13.764;2024-03-07T04:40:08;4.40;99.90
43949;DHT22;29429;51.074;13.764;2024-03-07T04:42:47;4.30;99.90
43949;DHT22;29429;51.074;13.764;2024-03-07T04:45:18;4.30;99.90
43949;DHT22;29429;51.074;13.764;2024-03-07T04:47:46;4.30;99.90
43949;DHT22;29429;51.074;13.764;2024-03-07T04:50:15;4.30;99.90
43949;DHT22;29429;51.074;13.764;2024-03-07T04:52:47;4.20;99.90
43949;DHT22;29429;51.074;13.764;2024-03-07T04:55:16;4.20;99.90
43949;DHT22;29429;51.074;13.764;2024-03-07T04:57:43;4.20;99.90
43949;DHT22;29429;51.074;13.764;2024-03-07T05:00:12;4.20;99.90
43949;DHT22;29429;51.074;13.764;2024-03-07T05:02:45;4.20;99.90
43949;DHT22;29429;51.074;13.764;2024-03-07T05:05:14;4.20;99.90
43949;DHT22;29429;51.074;13.764;2024-03-07T05:07:49;4.20;99.90
43949;DHT22;29429;51.074;13.764;2024-03-07T05:10:17;4.20;99.90
43949;DHT22;29429;51.074;13.764;2024-03-07T05:12:45;4.20;99.90
43949;DHT22;29429;51.074;13.764;2024-03-07T05:15:12;4.20;99.90
43949;DHT22;29429;51.074;13.764;2024-03-07T05:17:38;4.20;99.90
43949;DHT22;29429;51.074;13.764;2024-03-07T05:20:07;4.20;99.90
43949;DHT22;29429;51.074;13.764;2024-03-07T05:22:38;4.10;99.90
43949;DHT22;29429;51.074;13.764;2024-03-07T05:25:11;4.00;99.90
43949;DHT22;29429;51.074;13.764;2024-03-07T05:27:38;4.00;99.90
43949;DHT22;29429;51.074;13.764;2024-03-07T05:30:06;4.00;99.90
43949;DHT22;29429;51.074;13.764;2024-03-07T05:32:37;4.00;99.90
43949;DHT22;29429;51.074;13.764;2024-03-07T05:35:05;4.00;99.90
43949;DHT22;29429;51.074;13.764;2024-03-07T05:37:32;4.00;99.90
43949;DHT22;29429;51.074;13.764;2024-03-07T05:39:59;3.90;99.90
43949;DHT22;29429;51.074;13.764;2024-03-07T05:42:27;3.90;99.90
43949;DHT22;29429;51.074;13.764;2024-03-07T05:44:54;3.80;99.90
43949;DHT22;29429;51.074;13.764;2024-03-07T05:47:21;3.80;99.90
43949;DHT22;29429;51.074;13.764;2024-03-07T05:49:49;3.90;99.90
43949;DHT22;29429;51.074;13.764;2024-03-07T05:52:16;3.90;99.90
43949;DHT22;29429;51.074;13.764;2024-03-07T05:54:44;3.90;99.90
43949;DHT22;29429;51.074;13.764;2024-03-07T05:57:11;3.80;99.90
43949;DHT22;29429;51.074;13.764;2024-03-07T05:59:38;3.70;99.90
43949;DHT22;29429;51.074;13.764;2024-03-07T06:02:06;3.70;99.90
43949;DHT22;29429;51.074;13.764;2024-03-07T06:04:33;3.60;99.90
43949;DHT22;29429;51.074;13.764;2024-03-07T06:07:01;3.60;99.90
43949;DHT22;29429;51.074;13.764;2024-03-07T06:09:28;3.50;99.90
43949;DHT22;29429;51.074;13.764;2024-03-07T06:11:55;3.40;99.90
43949;DHT22;29429;51.074;13.764;2024-03-07T06:14:22;3.50;99.90
43949;DHT22;29429;51.074;13.764;2024-03-07T06:16:51;3.40;99.90
43949;DHT22;29429;51.074;13.764;2024-03-07T06:19:19;3.40;99.90
43949;DHT22;29429;51.074;13.764;2024-03-07T06:21:46;3.40;99.90
43949;DHT22;29429;51.074;13.764;2024-03-07T06:24:13;3.50;99.90
43949;DHT22;29429;51.074;13.764;2024-03-07T06:26:42;3.60;99.90
43949;DHT22;29429;51.074;13.764;2024-03-07T06:29:17;3.70;99.90
43949;DHT22;29429;51.074;13.764;2024-03-07T06:31:45;3.80;99.90
43949;DHT22;29429;51.074;13.764;2024-03-07T06:34:13;3.90;99.90
43949;DHT22;29429;51.074;13.764;2024-03-07T06:36:41;4.00;99.90
43949;DHT22;29429;51.074;13.764;2024-03-07T06:39:07;4.10;99.90
43949;DHT22;29429;51.074;13.764;2024-03-07T06:41:37;4.10;99.90
43949;DHT22;29429;51.074;13.764;2024-03-07T06:44:06;4.10;99.90
43949;DHT22;29429;51.074;13.764;2024-03-07T06:46:34;4.10;99.90
43949;DHT22;29429;51.074;13.764;2024-03-07T06:49:01;4.20;99.90
43949;DHT22;29429;51.074;13.764;2024-03-07T06:51:28;4.00;99.90
43949;DHT22;29429;51.074;13.764;2024-03-07T06:53:55;4.10;99.90
43949;DHT22;29429;51.074;13.764;2024-03-07T06:56:23;4.10;99.90
43949;DHT22;29429;51.074;13.764;2024-03-07T06:58:51;4.10;99.90
43949;DHT22;29429;51.074;13.764;2024-03-07T07:01:18;4.10;99.90
43949;DHT22;29429;51.074;13.764;2024-03-07T07:03:47;4.00;99.90
43949;DHT22;29429;51.074;13.764;2024-03-07T07:06:15;4.10;99.90
43949;DHT22;29429;51.074;13.764;2024-03-07T07:08:48;4.10;99.90
43949;DHT22;29429;51.074;13.764;2024-03-07T07:11:16;4.10;99.90
43949;DHT22;29429;51.074;13.764;2024-03-07T07:13:44;4.10;99.90
43949;DHT22;29429;51.074;13.764;2024-03-07T07:16:13;4.00;99.90
43949;DHT22;29429;51.074;13.764;2024-03-07T07:18:40;4.10;99.90
43949;DHT22;29429;51.074;13.764;2024-03-07T07:21:08;4.20;99.90
43949;DHT22;29429;51.074;13.764;2024-03-07T07:23:41;4.20;99.90
43949;DHT22;29429;51.074;13.764;2024-03-07T07:26:14;4.20;99.90
43949;DHT22;29429;51.074;13.764;2024-03-07T07:28:42;4.20;99.90
43949;DHT22;29429;51.074;13.764;2024-03-07T07:31:08;4.20;99.90
43949;DHT22;29429;51.074;13.764;2024-03-07T07:33:36;4.10;99.90
43949;DHT22;29429;51.074;13.764;2024-03-07T07:36:03;4.10;99.90
43949;DHT22;29429;51.074;13.764;2024-03-07T07:38:30;4.10;99.90
43949;DHT22;29429;51.074;13.764;2024-03-07T07:40:58;4.00;99.90
43949;DHT22;29429;51.074;13.764;2024-03-07T07:43:25;4.10;99.90
43949;DHT22;29429;51.074;13.764;2024-03-07T07:46:11;4.10;99.90
43949;DHT22;29429;51.074;13.764;2024-03-07T07:48:38;4.30;99.90
43949;DHT22;29429;51.074;13.764;2024-03-07T07:51:06;4.40;99.90
43949;DHT22;29429;51.074;13.764;2024-03-07T07:53:34;4.40;99.90
43949;DHT22;29429;51.074;13.764;2024-03-07T07:56:02;4.50;99.90
43949;DHT22;29429;51.074;13.764;2024-03-07T07:58:29;4.40;99.90
43949;DHT22;29429;51.074;13.764;2024-03-07T08:00:56;4.40;99.90
43949;DHT22;29429;51.074;13.764;2024-03-07T08:03:24;4.40;99.90
43949;DHT22;29429;51.074;13.764;2024-03-07T08:05:51;4.40;99.90
43949;DHT22;29429;51.074;13.764;2024-03-07T08:08:18;4.40;99.90
43949;DHT22;29429;51.074;13.764;2024-03-07T08:10:46;4.40;99.90
43949;DHT22;29429;51.074;13.764;2024-03-07T08:13:14;4.40;99.90
43949;DHT22;29429;51.074;13.764;2024-03-07T08:15:42;4.40;99.90
43949;DHT22;29429;51.074;13.764;2024-03-07T08:18:09;4.50;99.90
43949;DHT22;29429;51.074;13.764;2024-03-07T08:20:39;4.60;99.90
43949;DHT22;29429;51.074;13.764;2024-03-07T08:23:12;4.70;99.90
43949;DHT22;29429;51.074;13.764;2024-03-07T08:25:40;4.90;99.90
43949;DHT22;29429;51.074;13.764;2024-03-07T08:28:08;4.90;99.90
43949;DHT22;29429;51.074;13.764;2024-03-07T08:30:35;5.00;99.90
43949;DHT22;29429;51.074;13.764;2024-03-07T08:33:02;5.10;99.90
43949;DHT22;29429;51.074;13.764;2024-03-07T08:35:32;5.20;99.90
43949;DHT22;29429;51.074;13.764;2024-03-07T08:38:14;5.20;99.90
43949;DHT22;29429;51.074;13.764;2024-03-07T08:40:41;5.30;99.90
43949;DHT22;29429;51.074;13.764;2024-03-07T08:43:09;5.40;99.90
43949;DHT22;29429;51.074;13.764;2024-03-07T08:45:36;5.50;99.90
43949;DHT22;29429;51.074;13.764;2024-03-07T08:48:04;5.50;99.90
43949;DHT22;29429;51.074;13.764;2024-03-07T08:50:38;5.60;99.90
43949;DHT22;29429;51.074;13.764;2024-03-07T08:53:06;5.70;99.90
43949;DHT22;29429;51.074;13.764;2024-03-07T08:55:33;5.70;99.90
43949;DHT22;29429;51.074;13.764;2024-03-07T08:58:03;5.70;99.90
43949;DHT22;29429;51.074;13.764;2024-03-07T09:00:30;5.80;99.90
43949;DHT22;29429;51.074;13.764;2024-03-07T09:03:01;5.80;99.90
43949;DHT22;29429;51.074;13.764;2024-03-07T09:05:36;5.90;99.90
43949;DHT22;29429;51.074;13.764;2024-03-07T09:08:04;6.00;99.90
43949;DHT22;29429;51.074;13.764;2024-03-07T09:10:32;6.30;99.90
43949;DHT22;29429;51.074;13.764;2024-03-07T09:12:59;6.40;99.90
43949;DHT22;29429;51.074;13.764;2024-03-07T09:15:26;6.60;99.90
43949;DHT22;29429;51.074;13.764;2024-03-07T09:17:54;6.70;99.90
43949;DHT22;29429;51.074;13.764;2024-03-07T09:20:22;6.90;99.90
43949;DHT22;29429;51.074;13.764;2024-03-07T09:22:50;7.10;99.90
43949;DHT22;29429;51.074;13.764;2024-03-07T09:25:18;7.10;99.90
43949;DHT22;29429;51.074;13.764;2024-03-07T09:27:46;7.10;99.90
43949;DHT22;29429;51.074;13.764;2024-03-07T09:30:13;7.20;99.90
43949;DHT22;29429;51.074;13.764;2024-03-07T09:32:47;7.30;99.90
43949;DHT22;29429;51.074;13.764;2024-03-07T09:35:16;7.40;99.90
43949;DHT22;29429;51.074;13.764;2024-03-07T09:37:44;7.50;99.90
43949;DHT22;29429;51.074;13.764;2024-03-07T09:40:11;7.50;99.90
43949;DHT22;29429;51.074;13.764;2024-03-07T09:42:47;7.50;99.90
43949;DHT22;29429;51.074;13.764;2024-03-07T09:45:20;7.50;99.90
43949;DHT22;29429;51.074;13.764;2024-03-07T09:47:50;7.60;99.90
43949;DHT22;29429;51.074;13.764;2024-03-07T09:50:20;7.60;99.90
43949;DHT22;29429;51.074;13.764;2024-03-07T09:52:52;7.60;99.90
43949;DHT22;29429;51.074;13.764;2024-03-07T09:55:22;7.60;99.90
43949;DHT22;29429;51.074;13.764;2024-03-07T09:57:53;7.70;99.90
43949;DHT22;29429;51.074;13.764;2024-03-07T10:00:23;7.70;99.90
43949;DHT22;29429;51.074;13.764;2024-03-07T10:03:13;7.60;99.90
43949;DHT22;29429;51.074;13.764;2024-03-07T10:05:41;7.60;99.90
43949;DHT22;29429;51.074;13.764;2024-03-07T10:08:09;7.70;99.90
43949;DHT22;29429;51.074;13.764;2024-03-07T10:10:39;7.70;99.90
43949;DHT22;29429;51.074;13.764;2024-03-07T10:13:06;7.70;99.90
43949;DHT22;29429;51.074;13.764;2024-03-07T10:15:35;7.60;99.90
43949;DHT22;29429;51.074;13.764;2024-03-07T10:18:06;7.70;99.90
43949;DHT22;29429;51.074;13.764;2024-03-07T10:20:34;7.80;99.60
43949;DHT22;29429;51.074;13.764;2024-03-07T10:23:03;7.90;99.30
43949;DHT22;29429;51.074;13.764;2024-03-07T10:25:30;7.90;99.90
43949;DHT22;29429;51.074;13.764;2024-03-07T10:27:57;8.10;99.70
43949;DHT22;29429;51.074;13.764;2024-03-07T10:30:28;8.10;99.00
43949;DHT22;29429;51.074;13.764;2024-03-07T10:32:59;8.10;99.90
43949;DHT22;29429;51.074;13.764;2024-03-07T10:35:29;8.10;98.60
43949;DHT22;29429;51.074;13.764;2024-03-07T10:37:58;8.10;98.80
43949;DHT22;29429;51.074;13.764;2024-03-07T10:40:34;8.00;98.80
43949;DHT22;29429;51.074;13.764;2024-03-07T10:43:11;7.90;99.50
43949;DHT22;29429;51.074;13.764;2024-03-07T10:45:46;7.90;99.90
43949;DHT22;29429;51.074;13.764;2024-03-07T10:48:19;7.90;99.90
43949;DHT22;29429;51.074;13.764;2024-03-07T10:54:11;7.80;99.90
43949;DHT22;29429;51.074;13.764;2024-03-07T10:57:16;7.80;99.90
43949;DHT22;29429;51.074;13.764;2024-03-07T10:59:50;7.80;99.90
43949;DHT22;29429;51.074;13.764;2024-03-07T11:02:34;7.70;99.90
43949;DHT22;29429;51.074;13.764;2024-03-07T11:05:13;7.60;99.90
43949;DHT22;29429;51.074;13.764;2024-03-07T11:07:43;7.60;99.90
43949;DHT22;29429;51.074;13.764;2024-03-07T11:10:11;7.60;99.90
43949;DHT22;29429;51.074;13.764;2024-03-07T11:12:40;7.60;99.90
43949;DHT22;29429;51.074;13.764;2024-03-07T11:15:09;7.50;99.90
43949;DHT22;29429;51.074;13.764;2024-03-07T11:17:43;7.40;99.90
43949;DHT22;29429;51.074;13.764;2024-03-07T11:20:26;7.30;99.90
43949;DHT22;29429;51.074;13.764;2024-03-07T11:23:00;7.40;99.90
43949;DHT22;29429;51.074;13.764;2024-03-07T11:25:29;7.30;99.90
43949;DHT22;29429;51.074;13.764;2024-03-07T11:27:58;7.30;99.90
43949;DHT22;29429;51.074;13.764;2024-03-07T11:30:26;7.30;99.90
43949;DHT22;29429;51.074;13.764;2024-03-07T11:32:54;7.30;99.90
43949;DHT22;29429;51.074;13.764;2024-03-07T11:35:31;7.20;99.90
43949;DHT22;29429;51.074;13.764;2024-03-07T11:37:59;7.10;99.90
43949;DHT22;29429;51.074;13.764;2024-03-07T11:42:54;7.10;99.90
43949;DHT22;29429;51.074;13.764;2024-03-07T11:45:31;7.20;99.90
43949;DHT22;29429;51.074;13.764;2024-03-07T11:48:11;7.10;99.90
43949;DHT22;29429;51.074;13.764;2024-03-07T11:50:42;7.20;99.90
43949;DHT22;29429;51.074;13.764;2024-03-07T11:53:10;7.10;99.90
43949;DHT22;29429;51.074;13.764;2024-03-07T11:55:38;7.00;99.90
43949;DHT22;29429;51.074;13.764;2024-03-07T11:58:12;7.00;99.90
43949;DHT22;29429;51.074;13.764;2024-03-07T12:00:44;7.10;99.90
43949;DHT22;29429;51.074;13.764;2024-03-07T12:03:13;7.00;99.90
43949;DHT22;29429;51.074;13.764;2024-03-07T12:05:44;7.00;99.90
43949;DHT22;29429;51.074;13.764;2024-03-07T12:08:12;7.00;99.90
43949;DHT22;29429;51.074;13.764;2024-03-07T12:10:41;7.00;99.90
43949;DHT22;29429;51.074;13.764;2024-03-07T12:13:15;7.10;99.90
43949;DHT22;29429;51.074;13.764;2024-03-07T12:15:43;7.10;99.90
43949;DHT22;29429;51.074;13.764;2024-03-07T12:18:11;7.00;99.90
43949;DHT22;29429;51.074;13.764;2024-03-07T12:20:45;7.10;99.90
43949;DHT22;29429;51.074;13.764;2024-03-07T12:23:17;7.10;99.90
43949;DHT22;29429;51.074;13.764;2024-03-07T12:25:46;7.20;99.90
43949;DHT22;29429;51.074;13.764;2024-03-07T12:28:14;7.20;99.90
43949;DHT22;29429;51.074;13.764;2024-03-07T12:30:54;7.30;99.90
43949;DHT22;29429;51.074;13.764;2024-03-07T12:33:29;7.30;99.90
43949;DHT22;29429;51.074;13.764;2024-03-07T12:36:02;7.60;99.70
43949;DHT22;29429;51.074;13.764;2024-03-07T12:38:34;7.50;99.90
43949;DHT22;29429;51.074;13.764;2024-03-07T12:41:06;7.60;99.90
43949;DHT22;29429;51.074;13.764;2024-03-07T12:43:40;7.70;99.90
43949;DHT22;29429;51.074;13.764;2024-03-07T12:46:11;8.10;99.80
43949;DHT22;29429;51.074;13.764;2024-03-07T12:48:43;8.20;99.00
43949;DHT22;29429;51.074;13.764;2024-03-07T12:51:13;8.30;98.10
43949;DHT22;29429;51.074;13.764;2024-03-07T12:53:46;8.40;97.60
43949;DHT22;29429;51.074;13.764;2024-03-07T12:56:14;8.50;96.50
43949;DHT22;29429;51.074;13.764;2024-03-07T12:58:47;8.50;96.10
43949;DHT22;29429;51.074;13.764;2024-03-07T13:01:16;8.60;96.00
43949;DHT22;29429;51.074;13.764;2024-03-07T13:03:46;8.60;95.00
43949;DHT22;29429;51.074;13.764;2024-03-07T13:06:13;8.40;93.50
43949;DHT22;29429;51.074;13.764;2024-03-07T13:08:40;8.50;94.10
43949;DHT22;29429;51.074;13.764;2024-03-07T13:11:08;8.40;94.10
43949;DHT22;29429;51.074;13.764;2024-03-07T13:13:37;8.40;94.40
43949;DHT22;29429;51.074;13.764;2024-03-07T13:16:04;8.30;94.80
43949;DHT22;29429;51.074;13.764;2024-03-07T13:18:31;8.30;94.10
43949;DHT22;29429;51.074;13.764;2024-03-07T13:21:00;8.30;94.40
43949;DHT22;29429;51.074;13.764;2024-03-07T13:23:31;8.20;93.90
43949;DHT22;29429;51.074;13.764;2024-03-07T13:26:02;8.20;94.00
43949;DHT22;29429;51.074;13.764;2024-03-07T13:28:35;8.10;94.70
43949;DHT22;29429;51.074;13.764;2024-03-07T13:31:02;8.00;94.00
43949;DHT22;29429;51.074;13.764;2024-03-07T13:33:30;8.00;95.00
43949;DHT22;29429;51.074;13.764;2024-03-07T13:35:57;8.00;94.80
43949;DHT22;29429;51.074;13.764;2024-03-07T13:38:24;8.00;94.50
43949;DHT22;29429;51.074;13.764;2024-03-07T13:40:52;8.10;93.40
43949;DHT22;29429;51.074;13.764;2024-03-07T13:43:19;8.10;94.40
43949;DHT22;29429;51.074;13.764;2024-03-07T13:45:46;8.30;95.00
43949;DHT22;29429;51.074;13.764;2024-03-07T13:48:15;8.40;94.40
43949;DHT22;29429;51.074;13.764;2024-03-07T13:50:46;8.40;93.20
43949;DHT22;29429;51.074;13.764;2024-03-07T13:53:26;8.50;92.20
43949;DHT22;29429;51.074;13.764;2024-03-07T13:56:23;8.40;92.50
43949;DHT22;29429;51.074;13.764;2024-03-07T14:02:08;8.30;92.20
43949;DHT22;29429;51.074;13.764;2024-03-07T14:05:38;8.50;92.30
43949;DHT22;29429;51.074;13.764;2024-03-07T14:08:49;8.50;92.20
43949;DHT22;29429;51.074;13.764;2024-03-07T14:12:12;8.50;91.70
43949;DHT22;29429;51.074;13.764;2024-03-07T14:30:23;7.30;93.50
43949;DHT22;29429;51.074;13.764;2024-03-07T14:33:08;7.20;95.60
43949;DHT22;29429;51.074;13.764;2024-03-07T14:35:58;7.20;94.90
43949;DHT22;29429;51.074;13.764;2024-03-07T14:38:45;7.10;95.50
43949;DHT22;29429;51.074;13.764;2024-03-07T14:41:39;7.20;95.90
43949;DHT22;29429;51.074;13.764;2024-03-07T14:44:28;7.30;95.90
43949;DHT22;29429;51.074;13.764;2024-03-07T14:46:59;7.40;94.80
43949;DHT22;29429;51.074;13.764;2024-03-07T14:49:33;7.50;94.60
43949;DHT22;29429;51.074;13.764;2024-03-07T14:52:01;7.70;95.10
43949;DHT22;29429;51.074;13.764;2024-03-07T14:54:30;7.80;94.50
43949;DHT22;29429;51.074;13.764;2024-03-07T14:56:57;7.90;94.10
43949;DHT22;29429;51.074;13.764;2024-03-07T14:59:25;7.90;94.20
43949;DHT22;29429;51.074;13.764;2024-03-07T15:01:53;7.90;93.90
43949;DHT22;29429;51.074;13.764;2024-03-07T15:04:20;7.80;93.60
43949;DHT22;29429;51.074;13.764;2024-03-07T15:06:48;7.80;93.80
43949;DHT22;29429;51.074;13.764;2024-03-07T15:09:14;7.80;94.00
43949;DHT22;29429;51.074;13.764;2024-03-07T15:11:43;7.80;93.90
43949;DHT22;29429;51.074;13.764;2024-03-07T15:14:11;7.80;93.60
43949;DHT22;29429;51.074;13.764;2024-03-07T15:19:13;7.80;93.30
43949;DHT22;29429;51.074;13.764;2024-03-07T15:21:41;7.80;94.40
43949;DHT22;29429;51.074;13.764;2024-03-07T15:24:08;7.70;94.30
43949;DHT22;29429;51.074;13.764;2024-03-07T15:26:35;7.70;94.90
43949;DHT22;29429;51.074;13.764;2024-03-07T15:29:02;7.60;95.40
43949;DHT22;29429;51.074;13.764;2024-03-07T15:31:29;7.60;95.60
43949;DHT22;29429;51.074;13.764;2024-03-07T15:33:56;7.60;95.40
43949;DHT22;29429;51.074;13.764;2024-03-07T15:36:24;7.50;95.60
43949;DHT22;29429;51.074;13.764;2024-03-07T15:38:55;7.50;95.40
43949;DHT22;29429;51.074;13.764;2024-03-07T15:41:24;7.40;95.30
43949;DHT22;29429;51.074;13.764;2024-03-07T15:43:51;7.40;95.30
43949;DHT22;29429;51.074;13.764;2024-03-07T15:46:18;7.30;95.00
43949;DHT22;29429;51.074;13.764;2024-03-07T15:48:45;7.30;95.00
43949;DHT22;29429;51.074;13.764;2024-03-07T15:51:15;7.20;95.20
43949;DHT22;29429;51.074;13.764;2024-03-07T15:53:43;7.20;95.60
43949;DHT22;29429;51.074;13.764;2024-03-07T15:56:11;7.20;95.40
43949;DHT22;29429;51.074;13.764;2024-03-07T15:58:40;7.20;95.90
43949;DHT22;29429;51.074;13.764;2024-03-07T16:01:07;7.10;96.30
43949;DHT22;29429;51.074;13.764;2024-03-07T16:03:34;7.00;96.60
43949;DHT22;29429;51.074;13.764;2024-03-07T16:06:01;7.00;96.40
43949;DHT22;29429;51.074;13.764;2024-03-07T16:08:29;7.00;97.00
43949;DHT22;29429;51.074;13.764;2024-03-07T16:10:56;7.10;97.20
43949;DHT22;29429;51.074;13.764;2024-03-07T16:13:23;6.90;97.40